sensor_id;sensor_type;location;lat;lon;timestamp;P1;P2;P0
55076;PMS7003;40971;44.702;11.030;2023-09-18T00:05:00;38.33;35.33;23.00
55076;PMS7003;40971;44.702;11.030;2023-09-18T00:15:02;32.33;29.67;21.00
55076;PMS7003;40971;44.702;11.030;2023-09-18T00:25:03;37.20;34.80;25.00
55076;PMS7003;40971;44.702;11.030;2023-09-18T00:35:08;39.56;34.89;24.00
55076;PMS7003;40971;44.702;11.030;2023-09-18T00:45:11;35.33;32.67;22.33
55076;PMS7003;40971;44.702;11.030;2023-09-18T00:55:13;36.75;34.50;23.00
55076;PMS7003;40971;44.702;11.030;2023-09-18T01:05:17;35.33;33.67;22.67
55076;PMS7003;40971;44.702;11.030;2023-09-18T01:15:42;36.25;32.75;23.50
55076;PMS7003;40971;44.702;11.030;2023-09-18T01:25:50;38.00;36.00;23.75
55076;PMS7003;40971;44.702;11.030;2023-09-18T01:35:53;45.25;38.75;26.00
55076;PMS7003;40971;44.702;11.030;2023-09-18T01:45:57;46.00;41.25;27.00
55076;PMS7003;40971;44.702;11.030;2023-09-18T01:56:00;45.33;40.00;26.00
55076;PMS7003;40971;44.702;11.030;2023-09-18T02:06:02;40.67;37.33;23.33
55076;PMS7003;40971;44.702;11.030;2023-09-18T02:16:06;41.88;37.75;24.88
55076;PMS7003;40971;44.702;11.030;2023-09-18T02:26:08;52.50;42.25;27.00
55076;PMS7003;40971;44.702;11.030;2023-09-18T02:36:12;43.00;39.67;25.33
55076;PMS7003;40971;44.702;11.030;2023-09-18T02:46:15;55.75;46.50;30.50
55076;PMS7003;40971;44.702;11.030;2023-09-18T02:56:17;59.00;47.67;31.67
55076;PMS7003;40971;44.702;11.030;2023-09-18T03:06:18;57.00;45.67;29.00
55076;PMS7003;40971;44.702;11.030;2023-09-18T03:16:20;54.00;44.00;28.00
55076;PMS7003;40971;44.702;11.030;2023-09-18T03:26:22;51.00;45.00;28.00
55076;PMS7003;40971;44.702;11.030;2023-09-18T03:36:24;58.00;48.00;30.00
55076;PMS7003;40971;44.702;11.030;2023-09-18T03:46:25;50.33;43.00;27.00
55076;PMS7003;40971;44.702;11.030;2023-09-18T03:56:28;52.67;44.00;27.00
55076;PMS7003;40971;44.702;11.030;2023-09-18T04:06:37;54.00;44.33;30.00
55076;PMS7003;40971;44.702;11.030;2023-09-18T04:16:47;46.67;40.33;27.67
55076;PMS7003;40971;44.702;11.030;2023-09-18T04:26:49;41.75;39.00;25.50
55076;PMS7003;40971;44.702;11.030;2023-09-18T04:36:53;51.33;43.33;29.00
55076;PMS7003;40971;44.702;11.030;2023-09-18T04:46:55;47.75;42.50;29.00
55076;PMS7003;40971;44.702;11.030;2023-09-18T04:57:00;46.00;39.33;26.00
55076;PMS7003;40971;44.702;11.030;2023-09-18T05:07:02;52.25;42.75;27.50
55076;PMS7003;40971;44.702;11.030;2023-09-18T05:17:04;53.00;43.00;28.00
55076;PMS7003;40971;44.702;11.030;2023-09-18T05:27:06;46.67;42.33;27.00
55076;PMS7003;40971;44.702;11.030;2023-09-18T05:37:09;50.00;43.00;27.00
55076;PMS7003;40971;44.702;11.030;2023-09-18T05:47:12;47.33;42.00;27.00
55076;PMS7003;40971;44.702;11.030;2023-09-18T05:57:14;55.67;45.33;28.00
55076;PMS7003;40971;44.702;11.030;2023-09-18T06:07:15;54.00;45.67;29.33
55076;PMS7003;40971;44.702;11.030;2023-09-18T06:17:17;57.75;48.25;31.50
55076;PMS7003;40971;44.702;11.030;2023-09-18T06:27:20;58.00;49.00;32.00
55076;PMS7003;40971;44.702;11.030;2023-09-18T06:37:21;59.40;49.60;31.00
55076;PMS7003;40971;44.702;11.030;2023-09-18T06:47:24;58.25;48.50;31.00
55076;PMS7003;40971;44.702;11.030;2023-09-18T06:57:27;64.75;53.00;32.25
55076;PMS7003;40971;44.702;11.030;2023-09-18T07:07:30;65.75;53.25;32.75
55076;PMS7003;40971;44.702;11.030;2023-09-18T07:17:32;62.67;50.67;33.00
55076;PMS7003;40971;44.702;11.030;2023-09-18T07:27:34;58.00;49.50;33.00
55076;PMS7003;40971;44.702;11.030;2023-09-18T07:37:38;63.50;52.00;34.00
55076;PMS7003;40971;44.702;11.030;2023-09-18T07:47:42;65.50;53.25;34.00
55076;PMS7003;40971;44.702;11.030;2023-09-18T07:57:44;62.33;51.00;33.00
55076;PMS7003;40971;44.702;11.030;2023-09-18T08:07:47;66.50;54.00;34.00
55076;PMS7003;40971;44.702;11.030;2023-09-18T08:17:51;66.00;54.75;34.75
55076;PMS7003;40971;44.702;11.030;2023-09-18T08:27:55;67.25;53.75;34.50
55076;PMS7003;40971;44.702;11.030;2023-09-18T08:37:56;66.50;55.50;34.00
55076;PMS7003;40971;44.702;11.030;2023-09-18T08:47:58;67.25;53.50;33.50
55076;PMS7003;40971;44.702;11.030;2023-09-18T08:58:02;65.63;53.75;33.50
55076;PMS7003;40971;44.702;11.030;2023-09-18T09:08:07;61.88;50.63;32.75
55076;PMS7003;40971;44.702;11.030;2023-09-18T09:18:10;65.25;52.25;33.00
55076;PMS7003;40971;44.702;11.030;2023-09-18T09:28:14;63.00;50.75;34.00
55076;PMS7003;40971;44.702;11.030;2023-09-18T09:38:19;66.00;52.50;34.00
55076;PMS7003;40971;44.702;11.030;2023-09-18T09:48:23;67.67;54.67;33.67
55076;PMS7003;40971;44.702;11.030;2023-09-18T09:58:26;67.50;54.50;34.00
55076;PMS7003;40971;44.702;11.030;2023-09-18T10:08:33;63.25;52.50;34.00
55076;PMS7003;40971;44.702;11.030;2023-09-18T10:28:58;67.00;52.50;33.50
55076;PMS7003;40971;44.702;11.030;2023-09-18T10:39:03;66.50;54.00;34.50
55076;PMS7003;40971;44.702;11.030;2023-09-18T10:49:11;62.50;50.50;32.50
55076;PMS7003;40971;44.702;11.030;2023-09-18T10:59:14;63.50;51.75;32.25
55076;PMS7003;40971;44.702;11.030;2023-09-18T11:09:22;63.50;51.50;32.00
55076;PMS7003;40971;44.702;11.030;2023-09-18T11:19:29;64.75;52.50;32.25
55076;PMS7003;40971;44.702;11.030;2023-09-18T11:29:32;76.50;63.50;37.00
55076;PMS7003;40971;44.702;11.030;2023-09-18T11:39:38;68.00;54.50;34.00
55076;PMS7003;40971;44.702;11.030;2023-09-18T11:49:54;63.75;51.75;32.25
55076;PMS7003;40971;44.702;11.030;2023-09-18T12:00:00;61.00;50.00;32.75
55076;PMS7003;40971;44.702;11.030;2023-09-18T12:10:15;59.50;49.50;32.00
55076;PMS7003;40971;44.702;11.030;2023-09-18T12:20:18;58.00;47.00;31.00
55076;PMS7003;40971;44.702;11.030;2023-09-18T12:30:22;54.63;45.38;29.38
55076;PMS7003;40971;44.702;11.030;2023-09-18T12:40:27;53.00;44.00;29.00
55076;PMS7003;40971;44.702;11.030;2023-09-18T12:50:32;52.50;44.25;28.00
55076;PMS7003;40971;44.702;11.030;2023-09-18T13:00:37;52.50;44.25;28.50
55076;PMS7003;40971;44.702;11.030;2023-09-18T13:10:47;43.33;37.67;25.00
55076;PMS7003;40971;44.702;11.030;2023-09-18T13:20:54;46.33;39.33;25.00
55076;PMS7003;40971;44.702;11.030;2023-09-18T13:30:57;51.00;44.00;27.00
55076;PMS7003;40971;44.702;11.030;2023-09-18T13:41:01;54.00;45.00;29.00
55076;PMS7003;40971;44.702;11.030;2023-09-18T13:51:07;49.75;40.00;26.50
55076;PMS7003;40971;44.702;11.030;2023-09-18T14:01:11;43.50;37.75;25.50
55076;PMS7003;40971;44.702;11.030;2023-09-18T14:11:12;49.50;42.00;28.00
55076;PMS7003;40971;44.702;11.030;2023-09-18T14:21:14;42.25;38.00;26.00
55076;PMS7003;40971;44.702;11.030;2023-09-18T14:31:16;45.00;37.67;25.00
55076;PMS7003;40971;44.702;11.030;2023-09-18T14:41:20;47.13;40.00;24.50
55076;PMS7003;40971;44.702;11.030;2023-09-18T14:51:24;49.75;41.00;27.38
55076;PMS7003;40971;44.702;11.030;2023-09-18T15:01:26;48.00;39.00;25.50
55076;PMS7003;40971;44.702;11.030;2023-09-18T15:11:29;44.25;37.25;24.75
55076;PMS7003;40971;44.702;11.030;2023-09-18T15:21:30;47.00;39.00;24.50
55076;PMS7003;40971;44.702;11.030;2023-09-18T15:31:31;42.00;36.00;24.00
55076;PMS7003;40971;44.702;11.030;2023-09-18T15:41:34;46.00;38.00;24.00
55076;PMS7003;40971;44.702;11.030;2023-09-18T15:51:37;52.33;44.00;28.67
55076;PMS7003;40971;44.702;11.030;2023-09-18T16:01:39;46.50;39.50;25.25
55076;PMS7003;40971;44.702;11.030;2023-09-18T16:11:42;50.75;43.25;28.75
55076;PMS7003;40971;44.702;11.030;2023-09-18T16:21:44;46.00;39.00;26.00
55076;PMS7003;40971;44.702;11.030;2023-09-18T16:31:46;46.75;39.50;27.25
55076;PMS7003;40971;44.702;11.030;2023-09-18T16:41:47;42.00;35.00;24.00
55076;PMS7003;40971;44.702;11.030;2023-09-18T16:51:51;40.67;36.00;25.00
55076;PMS7003;40971;44.702;11.030;2023-09-18T17:01:54;35.25;33.75;24.00
55076;PMS7003;40971;44.702;11.030;2023-09-18T17:11:56;47.67;41.00;25.50
55076;PMS7003;40971;44.702;11.030;2023-09-18T17:21:59;43.75;38.75;25.75
55076;PMS7003;40971;44.702;11.030;2023-09-18T17:32:05;38.25;33.75;24.00
55076;PMS7003;40971;44.702;11.030;2023-09-18T17:42:10;41.00;36.50;24.00
55076;PMS7003;40971;44.702;11.030;2023-09-18T17:52:13;33.71;32.14;22.71
55076;PMS7003;40971;44.702;11.030;2023-09-18T18:02:18;42.50;36.00;24.00
55076;PMS7003;40971;44.702;11.030;2023-09-18T18:12:20;41.25;37.00;25.75
55076;PMS7003;40971;44.702;11.030;2023-09-18T18:22:23;39.25;35.75;25.25
55076;PMS7003;40971;44.702;11.030;2023-09-18T18:32:25;40.00;37.00;25.33
55076;PMS7003;40971;44.702;11.030;2023-09-18T18:42:26;36.33;35.33;25.33
55076;PMS7003;40971;44.702;11.030;2023-09-18T18:52:29;37.00;36.00;23.00
55076;PMS7003;40971;44.702;11.030;2023-09-18T19:02:31;41.25;36.75;25.00
55076;PMS7003;40971;44.702;11.030;2023-09-18T19:12:35;46.00;40.67;26.00
55076;PMS7003;40971;44.702;11.030;2023-09-18T19:22:37;40.75;35.75;25.00
55076;PMS7003;40971;44.702;11.030;2023-09-18T19:32:40;46.25;40.50;26.50
55076;PMS7003;40971;44.702;11.030;2023-09-18T19:42:44;43.50;38.88;26.50
55076;PMS7003;40971;44.702;11.030;2023-09-18T19:52:47;39.50;37.00;25.25
55076;PMS7003;40971;44.702;11.030;2023-09-18T20:02:50;37.75;36.50;26.00
55076;PMS7003;40971;44.702;11.030;2023-09-18T20:12:53;37.67;35.00;24.00
55076;PMS7003;40971;44.702;11.030;2023-09-18T20:22:58;31.33;27.67;19.00
55076;PMS7003;40971;44.702;11.030;2023-09-18T20:33:03;27.56;25.44;17.89
55076;PMS7003;40971;44.702;11.030;2023-09-18T20:43:08;31.33;29.89;20.78
55076;PMS7003;40971;44.702;11.030;2023-09-18T20:53:13;38.56;35.44;23.11
55076;PMS7003;40971;44.702;11.030;2023-09-18T21:03:15;39.00;36.00;25.00
55076;PMS7003;40971;44.702;11.030;2023-09-18T21:13:17;32.33;31.33;22.00
55076;PMS7003;40971;44.702;11.030;2023-09-18T21:23:19;27.00;26.33;18.33
55076;PMS7003;40971;44.702;11.030;2023-09-18T21:33:21;27.00;25.33;19.00
55076;PMS7003;40971;44.702;11.030;2023-09-18T21:43:24;28.67;27.67;20.67
55076;PMS7003;40971;44.702;11.030;2023-09-18T21:53:26;23.67;23.67;18.33
55076;PMS7003;40971;44.702;11.030;2023-09-18T22:03:28;27.33;27.00;21.00
55076;PMS7003;40971;44.702;11.030;2023-09-18T22:13:31;26.67;24.67;16.33
55076;PMS7003;40971;44.702;11.030;2023-09-18T22:23:34;26.20;25.60;15.80
55076;PMS7003;40971;44.702;11.030;2023-09-18T22:33:37;25.33;24.00;17.67
55076;PMS7003;40971;44.702;11.030;2023-09-18T23:04:22;27.00;22.00;15.50
55076;PMS7003;40971;44.702;11.030;2023-09-18T23:14:24;21.50;20.50;14.50
55076;PMS7003;40971;44.702;11.030;2023-09-18T23:24:26;24.67;24.33;16.67
55076;PMS7003;40971;44.702;11.030;2023-09-18T23:34:30;19.25;18.00;12.75
55076;PMS7003;40971;44.702;11.030;2023-09-18T23:44:33;19.40;18.80;12.80
55076;PMS7003;40971;44.702;11.030;2023-09-18T23:54:38;20.00;19.00;14.00
